sensor_id;sensor_type;location;lat;lon;timestamp;P1;durP1;ratioP1;P2;durP2;ratioP2
26690;SDS011;14307;51.718;8.938;2023-03-24T00:01:36;5.97;;;5.07;;
26690;SDS011;14307;51.718;8.938;2023-03-24T00:04:02;7.15;;;4.30;;
26690;SDS011;14307;51.718;8.938;2023-03-24T00:06:30;7.30;;;4.82;;
26690;SDS011;14307;51.718;8.938;2023-03-24T00:09:00;20.10;;;13.45;;
26690;SDS011;14307;51.718;8.938;2023-03-24T00:11:29;8.35;;;4.38;;
26690;SDS011;14307;51.718;8.938;2023-03-24T00:14:00;6.93;;;4.32;;
26690;SDS011;14307;51.718;8.938;2023-03-24T00:16:27;6.75;;;3.97;;
26690;SDS011;14307;51.718;8.938;2023-03-24T00:18:55;8.88;;;4.95;;
26690;SDS011;14307;51.718;8.938;2023-03-24T00:21:22;6.63;;;5.95;;
26690;SDS011;14307;51.718;8.938;2023-03-24T00:23:50;10.57;;;6.30;;
26690;SDS011;14307;51.718;8.938;2023-03-24T00:26:19;4.10;;;3.70;;
26690;SDS011;14307;51.718;8.938;2023-03-24T00:28:47;6.70;;;5.38;;
26690;SDS011;14307;51.718;8.938;2023-03-24T00:31:15;5.47;;;4.70;;
26690;SDS011;14307;51.718;8.938;2023-03-24T00:33:43;5.15;;;4.68;;
26690;SDS011;14307;51.718;8.938;2023-03-24T00:36:16;7.22;;;4.95;;
26690;SDS011;14307;51.718;8.938;2023-03-24T00:38:46;5.25;;;4.85;;
26690;SDS011;14307;51.718;8.938;2023-03-24T00:41:13;5.25;;;4.85;;
26690;SDS011;14307;51.718;8.938;2023-03-24T00:43:43;6.53;;;4.95;;
26690;SDS011;14307;51.718;8.938;2023-03-24T00:46:10;6.38;;;5.78;;
26690;SDS011;14307;51.718;8.938;2023-03-24T00:49:02;7.78;;;5.18;;
26690;SDS011;14307;51.718;8.938;2023-03-24T00:51:40;5.00;;;4.20;;
26690;SDS011;14307;51.718;8.938;2023-03-24T00:54:09;5.20;;;4.80;;
26690;SDS011;14307;51.718;8.938;2023-03-24T00:56:37;4.80;;;4.40;;
26690;SDS011;14307;51.718;8.938;2023-03-24T00:59:06;4.90;;;4.10;;
26690;SDS011;14307;51.718;8.938;2023-03-24T01:01:37;5.22;;;4.32;;
26690;SDS011;14307;51.718;8.938;2023-03-24T01:04:06;4.78;;;4.30;;
26690;SDS011;14307;51.718;8.938;2023-03-24T01:06:36;5.03;;;4.22;;
26690;SDS011;14307;51.718;8.938;2023-03-24T01:09:04;5.20;;;4.80;;
26690;SDS011;14307;51.718;8.938;2023-03-24T01:11:33;5.57;;;4.32;;
26690;SDS011;14307;51.718;8.938;2023-03-24T01:14:04;4.43;;;4.03;;
26690;SDS011;14307;51.718;8.938;2023-03-24T01:16:31;4.57;;;3.50;;
26690;SDS011;14307;51.718;8.938;2023-03-24T01:18:57;4.57;;;4.30;;
26690;SDS011;14307;51.718;8.938;2023-03-24T01:21:24;8.60;;;4.60;;
26690;SDS011;14307;51.718;8.938;2023-03-24T01:23:52;4.63;;;4.30;;
26690;SDS011;14307;51.718;8.938;2023-03-24T01:26:19;5.03;;;4.63;;
26690;SDS011;14307;51.718;8.938;2023-03-24T01:28:46;4.82;;;4.40;;
26690;SDS011;14307;51.718;8.938;2023-03-24T01:31:12;4.90;;;4.57;;
26690;SDS011;14307;51.718;8.938;2023-03-24T01:33:39;4.68;;;4.38;;
26690;SDS011;14307;51.718;8.938;2023-03-24T01:36:06;4.35;;;4.05;;
26690;SDS011;14307;51.718;8.938;2023-03-24T01:38:34;5.20;;;4.80;;
26690;SDS011;14307;51.718;8.938;2023-03-24T01:41:02;5.70;;;5.20;;
26690;SDS011;14307;51.718;8.938;2023-03-24T01:43:31;4.80;;;4.50;;
26690;SDS011;14307;51.718;8.938;2023-03-24T01:48:50;4.93;;;4.60;;
26690;SDS011;14307;51.718;8.938;2023-03-24T01:51:34;4.95;;;4.63;;
26690;SDS011;14307;51.718;8.938;2023-03-24T01:54:18;5.40;;;5.00;;
26690;SDS011;14307;51.718;8.938;2023-03-24T01:56:56;4.82;;;4.40;;
26690;SDS011;14307;51.718;8.938;2023-03-24T01:59:29;5.28;;;4.90;;
26690;SDS011;14307;51.718;8.938;2023-03-24T02:02:08;5.63;;;5.22;;
26690;SDS011;14307;51.718;8.938;2023-03-24T02:04:44;5.50;;;5.13;;
26690;SDS011;14307;51.718;8.938;2023-03-24T02:10:04;5.85;;;5.10;;
26690;SDS011;14307;51.718;8.938;2023-03-24T02:12:34;6.30;;;5.80;;
26690;SDS011;14307;51.718;8.938;2023-03-24T02:15:06;5.95;;;5.50;;
26690;SDS011;14307;51.718;8.938;2023-03-24T02:17:43;6.70;;;6.20;;
26690;SDS011;14307;51.718;8.938;2023-03-24T02:42:42;6.97;;;6.28;;
26690;SDS011;14307;51.718;8.938;2023-03-24T02:48:18;8.05;;;5.97;;
26690;SDS011;14307;51.718;8.938;2023-03-24T02:51:15;6.97;;;5.40;;
26690;SDS011;14307;51.718;8.938;2023-03-24T02:54:11;10.52;;;5.88;;
26690;SDS011;14307;51.718;8.938;2023-03-24T02:56:48;6.55;;;5.95;;
26690;SDS011;14307;51.718;8.938;2023-03-24T02:59:48;9.65;;;6.40;;
26690;SDS011;14307;51.718;8.938;2023-03-24T03:02:43;8.95;;;7.15;;
26690;SDS011;14307;51.718;8.938;2023-03-24T03:05:20;8.90;;;6.22;;
26690;SDS011;14307;51.718;8.938;2023-03-24T03:07:48;17.23;;;7.97;;
26690;SDS011;14307;51.718;8.938;2023-03-24T03:10:19;11.95;;;8.95;;
26690;SDS011;14307;51.718;8.938;2023-03-24T03:12:54;11.55;;;8.85;;
26690;SDS011;14307;51.718;8.938;2023-03-24T03:15:24;9.75;;;8.27;;
26690;SDS011;14307;51.718;8.938;2023-03-24T03:18:00;13.48;;;10.18;;
26690;SDS011;14307;51.718;8.938;2023-03-24T03:20:43;15.70;;;10.20;;
26690;SDS011;14307;51.718;8.938;2023-03-24T03:23:16;11.37;;;8.40;;
26690;SDS011;14307;51.718;8.938;2023-03-24T03:25:51;15.45;;;9.55;;
26690;SDS011;14307;51.718;8.938;2023-03-24T03:28:22;16.25;;;10.02;;
26690;SDS011;14307;51.718;8.938;2023-03-24T03:30:56;14.88;;;11.05;;
26690;SDS011;14307;51.718;8.938;2023-03-24T03:33:31;15.38;;;10.70;;
26690;SDS011;14307;51.718;8.938;2023-03-24T03:36:05;12.50;;;10.07;;
26690;SDS011;14307;51.718;8.938;2023-03-24T03:41:37;15.27;;;11.85;;
26690;SDS011;14307;51.718;8.938;2023-03-24T03:44:05;12.88;;;10.88;;
26690;SDS011;14307;51.718;8.938;2023-03-24T03:46:33;16.35;;;11.63;;
26690;SDS011;14307;51.718;8.938;2023-03-24T03:49:05;14.18;;;10.65;;
26690;SDS011;14307;51.718;8.938;2023-03-24T03:51:33;14.50;;;11.32;;
26690;SDS011;14307;51.718;8.938;2023-03-24T03:54:07;16.65;;;12.07;;
26690;SDS011;14307;51.718;8.938;2023-03-24T03:56:36;14.50;;;11.05;;
26690;SDS011;14307;51.718;8.938;2023-03-24T03:59:30;15.07;;;11.50;;
26690;SDS011;14307;51.718;8.938;2023-03-24T04:02:21;13.32;;;9.80;;
26690;SDS011;14307;51.718;8.938;2023-03-24T04:08:10;13.63;;;11.23;;
26690;SDS011;14307;51.718;8.938;2023-03-24T04:16:42;14.10;;;10.15;;
26690;SDS011;14307;51.718;8.938;2023-03-24T04:19:46;14.00;;;11.38;;
26690;SDS011;14307;51.718;8.938;2023-03-24T04:22:38;16.48;;;11.30;;
26690;SDS011;14307;51.718;8.938;2023-03-24T04:28:38;12.23;;;10.93;;
26690;SDS011;14307;51.718;8.938;2023-03-24T04:31:32;13.85;;;10.85;;
26690;SDS011;14307;51.718;8.938;2023-03-24T04:34:06;15.90;;;10.02;;
26690;SDS011;14307;51.718;8.938;2023-03-24T04:36:43;14.38;;;11.27;;
26690;SDS011;14307;51.718;8.938;2023-03-24T04:39:21;15.30;;;12.45;;
26690;SDS011;14307;51.718;8.938;2023-03-24T04:41:55;13.63;;;10.70;;
26690;SDS011;14307;51.718;8.938;2023-03-24T04:44:25;16.70;;;11.90;;
26690;SDS011;14307;51.718;8.938;2023-03-24T04:47:13;12.85;;;10.13;;
26690;SDS011;14307;51.718;8.938;2023-03-24T04:49:59;13.55;;;10.02;;
26690;SDS011;14307;51.718;8.938;2023-03-24T04:52:27;14.70;;;10.50;;
26690;SDS011;14307;51.718;8.938;2023-03-24T04:54:54;13.27;;;10.00;;
26690;SDS011;14307;51.718;8.938;2023-03-24T04:57:21;12.77;;;10.80;;
26690;SDS011;14307;51.718;8.938;2023-03-24T04:59:55;13.23;;;10.15;;
26690;SDS011;14307;51.718;8.938;2023-03-24T05:02:22;11.73;;;8.77;;
26690;SDS011;14307;51.718;8.938;2023-03-24T05:05:04;11.38;;;9.80;;
26690;SDS011;14307;51.718;8.938;2023-03-24T05:07:40;13.73;;;9.30;;
26690;SDS011;14307;51.718;8.938;2023-03-24T05:10:13;8.98;;;7.97;;
26690;SDS011;14307;51.718;8.938;2023-03-24T05:12:47;10.20;;;8.70;;
26690;SDS011;14307;51.718;8.938;2023-03-24T05:15:36;11.43;;;9.00;;
26690;SDS011;14307;51.718;8.938;2023-03-24T05:18:18;7.78;;;6.32;;
26690;SDS011;14307;51.718;8.938;2023-03-24T05:20:45;7.53;;;6.63;;
26690;SDS011;14307;51.718;8.938;2023-03-24T05:23:16;7.28;;;5.55;;
26690;SDS011;14307;51.718;8.938;2023-03-24T05:25:47;7.45;;;6.43;;
26690;SDS011;14307;51.718;8.938;2023-03-24T05:28:15;8.05;;;6.82;;
26690;SDS011;14307;51.718;8.938;2023-03-24T05:30:42;7.82;;;6.97;;
26690;SDS011;14307;51.718;8.938;2023-03-24T05:33:32;6.85;;;6.13;;
26690;SDS011;14307;51.718;8.938;2023-03-24T05:35:59;7.53;;;6.47;;
26690;SDS011;14307;51.718;8.938;2023-03-24T05:38:26;6.80;;;6.20;;
26690;SDS011;14307;51.718;8.938;2023-03-24T05:40:55;7.93;;;7.13;;
26690;SDS011;14307;51.718;8.938;2023-03-24T05:43:26;7.28;;;6.60;;
26690;SDS011;14307;51.718;8.938;2023-03-24T05:46:05;6.82;;;6.32;;
26690;SDS011;14307;51.718;8.938;2023-03-24T05:48:33;8.57;;;7.80;;
26690;SDS011;14307;51.718;8.938;2023-03-24T05:51:12;8.30;;;7.60;;
26690;SDS011;14307;51.718;8.938;2023-03-24T05:53:39;9.13;;;8.27;;
26690;SDS011;14307;51.718;8.938;2023-03-24T05:56:09;8.65;;;7.95;;
26690;SDS011;14307;51.718;8.938;2023-03-24T05:58:53;7.43;;;6.82;;
26690;SDS011;14307;51.718;8.938;2023-03-24T06:01:24;7.47;;;6.78;;
26690;SDS011;14307;51.718;8.938;2023-03-24T06:04:01;6.30;;;5.70;;
26690;SDS011;14307;51.718;8.938;2023-03-24T06:06:27;7.75;;;6.68;;
26690;SDS011;14307;51.718;8.938;2023-03-24T06:08:54;7.38;;;6.63;;
26690;SDS011;14307;51.718;8.938;2023-03-24T06:11:25;6.50;;;5.50;;
26690;SDS011;14307;51.718;8.938;2023-03-24T06:16:32;6.00;;;2.97;;
26690;SDS011;14307;51.718;8.938;2023-03-24T06:19:04;13.25;;;3.75;;
26690;SDS011;14307;51.718;8.938;2023-03-24T06:21:50;6.65;;;2.95;;
26690;SDS011;14307;51.718;8.938;2023-03-24T06:24:21;4.82;;;2.40;;
26690;SDS011;14307;51.718;8.938;2023-03-24T06:26:48;8.27;;;2.92;;
26690;SDS011;14307;51.718;8.938;2023-03-24T06:29:16;5.03;;;2.72;;
26690;SDS011;14307;51.718;8.938;2023-03-24T06:31:43;4.35;;;2.92;;
26690;SDS011;14307;51.718;8.938;2023-03-24T06:34:11;4.97;;;3.00;;
26690;SDS011;14307;51.718;8.938;2023-03-24T06:36:39;6.18;;;3.72;;
26690;SDS011;14307;51.718;8.938;2023-03-24T06:39:07;5.47;;;4.38;;
26690;SDS011;14307;51.718;8.938;2023-03-24T06:41:35;9.57;;;5.05;;
26690;SDS011;14307;51.718;8.938;2023-03-24T06:44:02;11.18;;;5.72;;
26690;SDS011;14307;51.718;8.938;2023-03-24T06:46:29;6.70;;;5.40;;
26690;SDS011;14307;51.718;8.938;2023-03-24T06:48:56;8.80;;;6.15;;
26690;SDS011;14307;51.718;8.938;2023-03-24T06:51:23;9.23;;;5.95;;
26690;SDS011;14307;51.718;8.938;2023-03-24T06:53:50;9.85;;;6.43;;
26690;SDS011;14307;51.718;8.938;2023-03-24T06:56:17;8.23;;;6.22;;
26690;SDS011;14307;51.718;8.938;2023-03-24T06:58:51;9.13;;;6.50;;
26690;SDS011;14307;51.718;8.938;2023-03-24T07:01:27;6.82;;;6.22;;
26690;SDS011;14307;51.718;8.938;2023-03-24T07:03:58;7.78;;;5.90;;
26690;SDS011;14307;51.718;8.938;2023-03-24T07:06:33;9.13;;;7.35;;
26690;SDS011;14307;51.718;8.938;2023-03-24T07:09:12;8.32;;;7.00;;
26690;SDS011;14307;51.718;8.938;2023-03-24T07:11:39;8.32;;;6.80;;
26690;SDS011;14307;51.718;8.938;2023-03-24T07:14:06;7.72;;;6.93;;
26690;SDS011;14307;51.718;8.938;2023-03-24T07:16:34;8.00;;;7.20;;
26690;SDS011;14307;51.718;8.938;2023-03-24T07:19:28;8.63;;;7.05;;
26690;SDS011;14307;51.718;8.938;2023-03-24T07:22:38;9.45;;;8.45;;
26690;SDS011;14307;51.718;8.938;2023-03-24T07:25:29;11.68;;;9.13;;
26690;SDS011;14307;51.718;8.938;2023-03-24T07:28:14;11.43;;;9.73;;
26690;SDS011;14307;51.718;8.938;2023-03-24T07:30:41;11.43;;;10.32;;
26690;SDS011;14307;51.718;8.938;2023-03-24T07:33:08;12.40;;;10.65;;
26690;SDS011;14307;51.718;8.938;2023-03-24T07:35:39;11.38;;;10.38;;
26690;SDS011;14307;51.718;8.938;2023-03-24T07:38:07;14.15;;;11.38;;
26690;SDS011;14307;51.718;8.938;2023-03-24T07:40:35;11.98;;;10.75;;
26690;SDS011;14307;51.718;8.938;2023-03-24T07:43:02;12.43;;;11.13;;
26690;SDS011;14307;51.718;8.938;2023-03-24T07:46:02;14.60;;;13.20;;
26690;SDS011;14307;51.718;8.938;2023-03-24T07:48:31;13.98;;;12.52;;
26690;SDS011;14307;51.718;8.938;2023-03-24T07:50:58;12.77;;;11.50;;
26690;SDS011;14307;51.718;8.938;2023-03-24T07:53:54;14.32;;;12.82;;
26690;SDS011;14307;51.718;8.938;2023-03-24T07:56:46;11.48;;;10.38;;
26690;SDS011;14307;51.718;8.938;2023-03-24T07:59:13;11.05;;;9.82;;
26690;SDS011;14307;51.718;8.938;2023-03-24T08:02:00;12.02;;;10.95;;
26690;SDS011;14307;51.718;8.938;2023-03-24T08:04:41;14.85;;;13.10;;
26690;SDS011;14307;51.718;8.938;2023-03-24T08:07:35;14.38;;;12.90;;
26690;SDS011;14307;51.718;8.938;2023-03-24T08:10:02;12.70;;;11.60;;
26690;SDS011;14307;51.718;8.938;2023-03-24T08:12:29;12.65;;;10.52;;
26690;SDS011;14307;51.718;8.938;2023-03-24T08:14:55;12.82;;;11.68;;
26690;SDS011;14307;51.718;8.938;2023-03-24T08:17:22;13.48;;;12.25;;
26690;SDS011;14307;51.718;8.938;2023-03-24T08:19:49;16.85;;;15.35;;
26690;SDS011;14307;51.718;8.938;2023-03-24T08:22:26;16.25;;;14.93;;
26690;SDS011;14307;51.718;8.938;2023-03-24T08:24:53;18.38;;;17.00;;
26690;SDS011;14307;51.718;8.938;2023-03-24T08:27:19;18.95;;;17.25;;
26690;SDS011;14307;51.718;8.938;2023-03-24T08:29:46;20.30;;;18.67;;
26690;SDS011;14307;51.718;8.938;2023-03-24T08:32:13;20.98;;;18.83;;
26690;SDS011;14307;51.718;8.938;2023-03-24T08:34:39;23.52;;;21.67;;
26690;SDS011;14307;51.718;8.938;2023-03-24T08:37:06;22.98;;;20.65;;
26690;SDS011;14307;51.718;8.938;2023-03-24T08:39:37;23.90;;;22.00;;
26690;SDS011;14307;51.718;8.938;2023-03-24T08:42:03;24.88;;;23.20;;
26690;SDS011;14307;51.718;8.938;2023-03-24T08:44:30;24.42;;;22.65;;
26690;SDS011;14307;51.718;8.938;2023-03-24T08:46:59;25.58;;;23.45;;
26690;SDS011;14307;51.718;8.938;2023-03-24T08:49:26;25.58;;;23.50;;
26690;SDS011;14307;51.718;8.938;2023-03-24T08:51:53;24.15;;;22.63;;
26690;SDS011;14307;51.718;8.938;2023-03-24T08:54:20;26.40;;;23.98;;
26690;SDS011;14307;51.718;8.938;2023-03-24T08:56:49;24.05;;;21.95;;
26690;SDS011;14307;51.718;8.938;2023-03-24T08:59:16;26.35;;;24.25;;
26690;SDS011;14307;51.718;8.938;2023-03-24T09:01:43;24.90;;;22.67;;
26690;SDS011;14307;51.718;8.938;2023-03-24T09:04:10;26.15;;;23.98;;
26690;SDS011;14307;51.718;8.938;2023-03-24T09:06:38;26.58;;;24.27;;
26690;SDS011;14307;51.718;8.938;2023-03-24T09:09:04;27.30;;;24.52;;
26690;SDS011;14307;51.718;8.938;2023-03-24T09:11:33;27.70;;;25.02;;
26690;SDS011;14307;51.718;8.938;2023-03-24T09:14:03;24.92;;;23.08;;
26690;SDS011;14307;51.718;8.938;2023-03-24T09:16:29;26.25;;;24.38;;
26690;SDS011;14307;51.718;8.938;2023-03-24T09:18:56;28.23;;;26.20;;
26690;SDS011;14307;51.718;8.938;2023-03-24T09:21:23;27.73;;;25.08;;
26690;SDS011;14307;51.718;8.938;2023-03-24T09:23:50;26.52;;;24.52;;
26690;SDS011;14307;51.718;8.938;2023-03-24T09:26:17;27.20;;;24.95;;
26690;SDS011;14307;51.718;8.938;2023-03-24T09:28:43;26.70;;;24.75;;
26690;SDS011;14307;51.718;8.938;2023-03-24T09:31:10;26.65;;;24.65;;
26690;SDS011;14307;51.718;8.938;2023-03-24T09:33:37;24.83;;;22.75;;
26690;SDS011;14307;51.718;8.938;2023-03-24T09:36:04;26.77;;;24.58;;
26690;SDS011;14307;51.718;8.938;2023-03-24T09:38:31;26.25;;;24.27;;
26690;SDS011;14307;51.718;8.938;2023-03-24T09:41:00;28.20;;;25.95;;
26690;SDS011;14307;51.718;8.938;2023-03-24T09:46:14;29.65;;;27.75;;
26690;SDS011;14307;51.718;8.938;2023-03-24T09:49:01;28.90;;;26.40;;
26690;SDS011;14307;51.718;8.938;2023-03-24T09:51:34;28.60;;;26.38;;
26690;SDS011;14307;51.718;8.938;2023-03-24T09:56:52;30.83;;;28.85;;
26690;SDS011;14307;51.718;8.938;2023-03-24T09:59:39;29.13;;;26.67;;
26690;SDS011;14307;51.718;8.938;2023-03-24T10:04:41;27.17;;;25.70;;
26690;SDS011;14307;51.718;8.938;2023-03-24T10:07:19;26.50;;;24.65;;
26690;SDS011;14307;51.718;8.938;2023-03-24T10:09:59;27.55;;;25.50;;
26690;SDS011;14307;51.718;8.938;2023-03-24T10:12:29;26.08;;;23.88;;
26690;SDS011;14307;51.718;8.938;2023-03-24T10:15:03;29.75;;;27.55;;
26690;SDS011;14307;51.718;8.938;2023-03-24T10:20:40;24.80;;;23.08;;
26690;SDS011;14307;51.718;8.938;2023-03-24T10:31:39;28.85;;;26.38;;
26690;SDS011;14307;51.718;8.938;2023-03-24T10:34:11;29.45;;;27.30;;
26690;SDS011;14307;51.718;8.938;2023-03-24T10:36:38;27.13;;;24.88;;
26690;SDS011;14307;51.718;8.938;2023-03-24T10:39:08;27.42;;;24.75;;
26690;SDS011;14307;51.718;8.938;2023-03-24T10:41:49;29.58;;;27.30;;
26690;SDS011;14307;51.718;8.938;2023-03-24T10:44:18;31.58;;;29.25;;
26690;SDS011;14307;51.718;8.938;2023-03-24T10:46:47;31.60;;;29.40;;
26690;SDS011;14307;51.718;8.938;2023-03-24T10:49:18;29.20;;;27.23;;
26690;SDS011;14307;51.718;8.938;2023-03-24T10:51:53;29.80;;;27.75;;
26690;SDS011;14307;51.718;8.938;2023-03-24T10:54:27;29.40;;;26.80;;
26690;SDS011;14307;51.718;8.938;2023-03-24T11:02:23;25.67;;;23.73;;
26690;SDS011;14307;51.718;8.938;2023-03-24T11:07:38;28.05;;;24.58;;
26690;SDS011;14307;51.718;8.938;2023-03-24T11:12:37;26.15;;;24.42;;
26690;SDS011;14307;51.718;8.938;2023-03-24T11:15:15;24.90;;;22.98;;
26690;SDS011;14307;51.718;8.938;2023-03-24T11:17:56;25.48;;;23.58;;
26690;SDS011;14307;51.718;8.938;2023-03-24T11:20:28;24.63;;;22.85;;
26690;SDS011;14307;51.718;8.938;2023-03-24T11:23:19;24.88;;;23.08;;
26690;SDS011;14307;51.718;8.938;2023-03-24T11:25:52;25.77;;;23.90;;
26690;SDS011;14307;51.718;8.938;2023-03-24T11:28:51;25.50;;;23.10;;
26690;SDS011;14307;51.718;8.938;2023-03-24T11:31:31;29.75;;;27.90;;
26690;SDS011;14307;51.718;8.938;2023-03-24T11:34:07;27.67;;;24.80;;
26690;SDS011;14307;51.718;8.938;2023-03-24T11:36:43;28.13;;;25.63;;
26690;SDS011;14307;51.718;8.938;2023-03-24T11:39:18;25.90;;;23.70;;
26690;SDS011;14307;51.718;8.938;2023-03-24T11:52:43;30.10;;;27.77;;
26690;SDS011;14307;51.718;8.938;2023-03-24T11:55:33;28.55;;;26.58;;
26690;SDS011;14307;51.718;8.938;2023-03-24T11:58:27;29.27;;;27.08;;
26690;SDS011;14307;51.718;8.938;2023-03-24T12:04:04;32.10;;;29.70;;
26690;SDS011;14307;51.718;8.938;2023-03-24T12:12:04;27.98;;;25.58;;
26690;SDS011;14307;51.718;8.938;2023-03-24T12:26:27;34.17;;;31.40;;
26690;SDS011;14307;51.718;8.938;2023-03-24T12:28:56;32.92;;;30.38;;
26690;SDS011;14307;51.718;8.938;2023-03-24T12:36:45;30.80;;;28.25;;
26690;SDS011;14307;51.718;8.938;2023-03-24T12:39:29;31.02;;;28.70;;
26690;SDS011;14307;51.718;8.938;2023-03-24T12:44:44;29.95;;;27.63;;
26690;SDS011;14307;51.718;8.938;2023-03-24T12:50:33;31.10;;;28.75;;
26690;SDS011;14307;51.718;8.938;2023-03-24T12:55:56;33.25;;;30.60;;
26690;SDS011;14307;51.718;8.938;2023-03-24T13:01:00;29.77;;;27.10;;
26690;SDS011;14307;51.718;8.938;2023-03-24T13:03:34;28.52;;;26.38;;
26690;SDS011;14307;51.718;8.938;2023-03-24T13:06:15;29.10;;;26.83;;
26690;SDS011;14307;51.718;8.938;2023-03-24T13:08:49;29.88;;;27.67;;
26690;SDS011;14307;51.718;8.938;2023-03-24T13:11:30;28.67;;;26.10;;
26690;SDS011;14307;51.718;8.938;2023-03-24T13:14:03;28.70;;;26.88;;
26690;SDS011;14307;51.718;8.938;2023-03-24T13:16:36;31.58;;;29.10;;
26690;SDS011;14307;51.718;8.938;2023-03-24T13:19:05;31.05;;;28.75;;
26690;SDS011;14307;51.718;8.938;2023-03-24T13:21:44;27.75;;;25.50;;
26690;SDS011;14307;51.718;8.938;2023-03-24T13:24:13;29.60;;;27.15;;
26690;SDS011;14307;51.718;8.938;2023-03-24T13:37:28;28.67;;;26.77;;
26690;SDS011;14307;51.718;8.938;2023-03-24T13:40:08;28.73;;;26.50;;
26690;SDS011;14307;51.718;8.938;2023-03-24T13:42:46;30.25;;;28.20;;
26690;SDS011;14307;51.718;8.938;2023-03-24T13:45:22;29.17;;;27.15;;
26690;SDS011;14307;51.718;8.938;2023-03-24T13:48:01;26.98;;;24.90;;
26690;SDS011;14307;51.718;8.938;2023-03-24T13:50:51;30.52;;;28.35;;
26690;SDS011;14307;51.718;8.938;2023-03-24T13:53:29;29.13;;;26.52;;
26690;SDS011;14307;51.718;8.938;2023-03-24T14:04:42;33.45;;;30.77;;
26690;SDS011;14307;51.718;8.938;2023-03-24T14:12:53;29.35;;;27.05;;
26690;SDS011;14307;51.718;8.938;2023-03-24T14:15:26;29.65;;;27.48;;
26690;SDS011;14307;51.718;8.938;2023-03-24T14:17:54;28.90;;;26.92;;
26690;SDS011;14307;51.718;8.938;2023-03-24T14:20:26;29.17;;;27.23;;
26690;SDS011;14307;51.718;8.938;2023-03-24T14:22:57;28.67;;;26.45;;
26690;SDS011;14307;51.718;8.938;2023-03-24T14:25:33;29.58;;;27.58;;
26690;SDS011;14307;51.718;8.938;2023-03-24T14:28:05;30.73;;;27.90;;
26690;SDS011;14307;51.718;8.938;2023-03-24T14:36:19;31.90;;;29.52;;
26690;SDS011;14307;51.718;8.938;2023-03-24T14:38:50;32.58;;;30.00;;
26690;SDS011;14307;51.718;8.938;2023-03-24T14:41:26;33.00;;;30.75;;
26690;SDS011;14307;51.718;8.938;2023-03-24T14:43:55;33.10;;;30.70;;
26690;SDS011;14307;51.718;8.938;2023-03-24T14:46:34;32.33;;;29.90;;
26690;SDS011;14307;51.718;8.938;2023-03-24T14:54:39;25.27;;;23.38;;
26690;SDS011;14307;51.718;8.938;2023-03-24T14:57:14;24.85;;;23.10;;
26690;SDS011;14307;51.718;8.938;2023-03-24T14:59:48;25.60;;;23.45;;
26690;SDS011;14307;51.718;8.938;2023-03-24T15:02:25;26.90;;;24.60;;
26690;SDS011;14307;51.718;8.938;2023-03-24T15:07:39;28.80;;;26.95;;
26690;SDS011;14307;51.718;8.938;2023-03-24T15:10:12;29.05;;;26.75;;
26690;SDS011;14307;51.718;8.938;2023-03-24T15:15:18;30.05;;;27.95;;
26690;SDS011;14307;51.718;8.938;2023-03-24T15:17:48;29.35;;;26.85;;
26690;SDS011;14307;51.718;8.938;2023-03-24T15:20:30;29.55;;;27.48;;
26690;SDS011;14307;51.718;8.938;2023-03-24T15:23:07;29.85;;;27.77;;
26690;SDS011;14307;51.718;8.938;2023-03-24T15:25:41;28.13;;;26.48;;
26690;SDS011;14307;51.718;8.938;2023-03-24T15:28:18;28.23;;;26.35;;
26690;SDS011;14307;51.718;8.938;2023-03-24T15:30:47;27.35;;;25.38;;
26690;SDS011;14307;51.718;8.938;2023-03-24T15:33:16;29.58;;;27.58;;
26690;SDS011;14307;51.718;8.938;2023-03-24T15:35:52;31.45;;;29.30;;
26690;SDS011;14307;51.718;8.938;2023-03-24T15:38:28;30.00;;;27.80;;
26690;SDS011;14307;51.718;8.938;2023-03-24T15:41:00;27.65;;;25.70;;
26690;SDS011;14307;51.718;8.938;2023-03-24T15:43:30;28.95;;;26.95;;
26690;SDS011;14307;51.718;8.938;2023-03-24T15:45:58;31.05;;;29.05;;
26690;SDS011;14307;51.718;8.938;2023-03-24T15:48:38;27.00;;;24.67;;
26690;SDS011;14307;51.718;8.938;2023-03-24T15:51:05;25.77;;;23.77;;
26690;SDS011;14307;51.718;8.938;2023-03-24T15:53:41;25.92;;;24.20;;
26690;SDS011;14307;51.718;8.938;2023-03-24T15:56:15;26.90;;;24.98;;
26690;SDS011;14307;51.718;8.938;2023-03-24T15:58:46;27.38;;;25.40;;
26690;SDS011;14307;51.718;8.938;2023-03-24T16:01:16;28.25;;;25.92;;
26690;SDS011;14307;51.718;8.938;2023-03-24T16:03:50;26.13;;;24.15;;
26690;SDS011;14307;51.718;8.938;2023-03-24T16:06:26;26.20;;;24.10;;
26690;SDS011;14307;51.718;8.938;2023-03-24T16:08:58;24.27;;;22.38;;
26690;SDS011;14307;51.718;8.938;2023-03-24T16:11:27;17.40;;;14.75;;
26690;SDS011;14307;51.718;8.938;2023-03-24T16:13:54;14.60;;;13.30;;
26690;SDS011;14307;51.718;8.938;2023-03-24T16:16:27;12.65;;;11.50;;
26690;SDS011;14307;51.718;8.938;2023-03-24T16:18:56;10.30;;;9.70;;
26690;SDS011;14307;51.718;8.938;2023-03-24T16:21:25;11.20;;;10.15;;
26690;SDS011;14307;51.718;8.938;2023-03-24T16:23:54;9.43;;;8.65;;
26690;SDS011;14307;51.718;8.938;2023-03-24T16:26:26;11.20;;;10.50;;
26690;SDS011;14307;51.718;8.938;2023-03-24T16:28:59;10.98;;;10.18;;
26690;SDS011;14307;51.718;8.938;2023-03-24T16:31:39;8.65;;;7.47;;
26690;SDS011;14307;51.718;8.938;2023-03-24T16:34:06;9.30;;;8.55;;
26690;SDS011;14307;51.718;8.938;2023-03-24T16:36:33;8.60;;;7.82;;
26690;SDS011;14307;51.718;8.938;2023-03-24T16:38:59;6.45;;;5.95;;
26690;SDS011;14307;51.718;8.938;2023-03-24T16:41:26;10.38;;;6.45;;
26690;SDS011;14307;51.718;8.938;2023-03-24T16:43:54;8.13;;;6.63;;
26690;SDS011;14307;51.718;8.938;2023-03-24T16:48:50;7.60;;;6.88;;
26690;SDS011;14307;51.718;8.938;2023-03-24T16:51:17;8.38;;;7.57;;
26690;SDS011;14307;51.718;8.938;2023-03-24T16:53:44;9.68;;;8.70;;
26690;SDS011;14307;51.718;8.938;2023-03-24T16:56:13;11.38;;;8.80;;
26690;SDS011;14307;51.718;8.938;2023-03-24T16:58:42;9.27;;;8.30;;
26690;SDS011;14307;51.718;8.938;2023-03-24T17:01:13;8.85;;;7.97;;
26690;SDS011;14307;51.718;8.938;2023-03-24T17:03:52;11.30;;;9.30;;
26690;SDS011;14307;51.718;8.938;2023-03-24T17:06:23;13.15;;;9.82;;
26690;SDS011;14307;51.718;8.938;2023-03-24T17:08:50;14.25;;;10.50;;
26690;SDS011;14307;51.718;8.938;2023-03-24T17:14:03;10.90;;;9.45;;
26690;SDS011;14307;51.718;8.938;2023-03-24T17:16:34;9.30;;;8.38;;
26690;SDS011;14307;51.718;8.938;2023-03-24T17:19:05;15.45;;;10.38;;
26690;SDS011;14307;51.718;8.938;2023-03-24T17:21:43;36.08;;;23.75;;
26690;SDS011;14307;51.718;8.938;2023-03-24T17:24:31;22.75;;;16.77;;
26690;SDS011;14307;51.718;8.938;2023-03-24T17:27:00;14.98;;;11.57;;
26690;SDS011;14307;51.718;8.938;2023-03-24T17:29:28;9.90;;;8.75;;
26690;SDS011;14307;51.718;8.938;2023-03-24T17:31:55;10.55;;;7.80;;
26690;SDS011;14307;51.718;8.938;2023-03-24T17:34:22;13.57;;;8.38;;
26690;SDS011;14307;51.718;8.938;2023-03-24T17:36:49;9.68;;;8.77;;
26690;SDS011;14307;51.718;8.938;2023-03-24T17:39:17;12.40;;;9.98;;
26690;SDS011;14307;51.718;8.938;2023-03-24T17:41:45;12.50;;;9.25;;
26690;SDS011;14307;51.718;8.938;2023-03-24T17:44:11;9.65;;;8.77;;
26690;SDS011;14307;51.718;8.938;2023-03-24T17:46:38;10.80;;;8.20;;
26690;SDS011;14307;51.718;8.938;2023-03-24T17:49:05;14.10;;;9.48;;
26690;SDS011;14307;51.718;8.938;2023-03-24T17:51:32;29.45;;;18.30;;
26690;SDS011;14307;51.718;8.938;2023-03-24T17:53:58;11.70;;;10.27;;
26690;SDS011;14307;51.718;8.938;2023-03-24T17:56:25;13.40;;;8.75;;
26690;SDS011;14307;51.718;8.938;2023-03-24T17:58:52;19.15;;;10.10;;